Terminal Aerodrome Forecast
Issued by NWS

Home | Current Version | Previous Version | Graphics & Text | Print | Product List | Glossary On
Versions: 1 2 3 4 5 6 7 8 9 10 11 12
000
FTUS45 KGGW 202329
TAFGDV
TAF
KGDV 202329Z 2100/2124 31006KT P6SM FEW080
     FM210300 00000KT P6SM SKC
     FM211500 20006KT P6SM FEW200
     FM211800 20010KT P6SM SKC=

USA.gov is the U.S. government's official web portal to all federal, state and local government web resources and services.